Aérodrome :







RETROUVEZ-NOUS SUR...

 
LOGIN :

S'inscrire | Disclaimer

   EN    FR    IT 

 









Légende :    VFR   VFR Marginal   IFR   IFR Intensif   IFR Très Intensif
Visi : 
Plafond : 
>= 8 km
>= 3000ft
5 à 8 km
1000 à 3000 ft
1500m à 5 km
500 à 1000 ft
800 à 1500m
200 à 500 ft
< 800m
< 200 ft
Symboles :   Orages  Brouillard  Fortes neiges  Fortes précipitations  Vent > 20 kt






- Altitude de l'aérodrome : 1663 ft
- Code IATA : SLK


KSLK - Adirondack Regional

DERNIER METAR :
  • 241351Z AUTO 29007KT 260V330 10SM OVC015 M06/M09 A3026 RMK AO2 SLP270 T10561089 $

METARs EXPIRÉS :
  • 241251Z AUTO VRB06KT 10SM OVC012 M05/M08 A3022 RMK AO2 SLP255 T10501078 $
  • 241159Z AUTO 36007KT 340V040 10SM BKN014 OVC026 M04/M07 A3020 RMK AO2 T10441072 $
  • 241151Z AUTO 28005KT 10SM BKN017 OVC026 M04/M07 A3019 RMK AO2 SLP247 70003 T10391072 11017 21039 53022 $

TAF KSLK
Valide du 24 à 12h jusqu'au 25 à 12h UTC


241134Z 2412/2512 31008KT P6SM BKN018
FM241400 32009KT P6SM SCT025
FM242200 VRB03KT P6SM FEW250
FM250800 VRB04KT P6SM VCSH OVC060
FM250900 15005KT 4SM -SN BR OVC025
FIR KZBW / Amérique du Nord



MET'MAP, la Météo Aéronautique d'un coup d'oeil ! - Copyright ORBIFLY Décembre 2007 - Disclaimer

ORBIFLY MET'MAP TEAM :

Programmation & Développement : Alexandra Zaïnal
Sur une idée originale de : Baudouin d'Aumeries
Assistance à la programmation : Marc-Olivier Méhu
Soutien technique & logistique : Manuel Goepfert

Contact : metmap@orbifly.com




SOURCES & CREDITS :

   NOAA